Time;durP1;ratioP1;P1;durP2;ratioP2;P2;SDS_P1;SDS_P2;PMS_P1;PMS_P2;Temp;Humidity;BMP_temperature;BMP_pressure;BME280_temperature;BME280_humidity;BME280_pressure;Samples;Min_cycle;Max_cycle;Signal;HPM_P1;HPM_P2
2022/05/07 00:01:37;;;;;;;11.77;9.60;;;13.60;79.30;;;;;;5055031;28;20032;-67
2022/05/07 00:04:02;;;;;;;12.13;10.60;;;13.60;79.40;;;;;;5054236;28;20037;-67
2022/05/07 00:06:28;;;;;;;13.48;11.27;;;13.50;79.40;;;;;;5055421;28;20493;-67
2022/05/07 00:08:54;;;;;;;15.45;11.90;;;13.50;79.60;;;;;;5056885;28;20475;-67
2022/05/07 00:11:20;;;;;;;12.95;10.60;;;13.50;79.80;;;;;;5053615;28;21500;-67
2022/05/07 00:13:50;;;;;;;13.82;10.50;;;13.40;79.80;;;;;;5055052;28;20325;-66
2022/05/07 00:19:00;;;;;;;14.82;10.63;;;13.40;79.80;;;;;;5055365;28;20165;-67
2022/05/07 00:21:26;;;;;;;12.57;11.07;;;13.30;79.90;;;;;;5056676;28;20111;-67
2022/05/07 00:23:51;;;;;;;13.57;10.57;;;13.20;79.90;;;;;;5055000;28;20529;-67
2022/05/07 00:26:17;;;;;;;13.73;11.00;;;13.30;80.00;;;;;;5055125;28;20418;-67
2022/05/07 00:28:44;;;;;;;11.50;10.27;;;13.20;80.00;;;;;;5055733;28;20037;-67
2022/05/07 00:31:10;;;;;;;12.05;10.27;;;13.20;80.00;;;;;;5053809;28;20028;-66
2022/05/07 00:33:36;;;;;;;13.85;10.43;;;13.20;80.00;;;;;;5050183;28;20044;-68
2022/05/07 00:36:02;;;;;;;15.25;11.07;;;13.20;80.20;;;;;;5052528;28;20410;-67
2022/05/07 00:38:27;;;;;;;12.00;10.23;;;13.20;80.20;;;;;;5053037;28;20035;-67
2022/05/07 00:40:53;;;;;;;17.13;10.85;;;13.20;80.10;;;;;;5054507;28;20041;-67
2022/05/07 00:43:19;;;;;;;12.68;10.15;;;13.10;79.90;;;;;;5053485;28;20472;-67
2022/05/07 00:45:49;;;;;;;13.18;10.60;;;13.10;79.90;;;;;;5060312;28;20512;-67
2022/05/07 00:48:15;;;;;;;12.13;10.45;;;13.10;80.10;;;;;;5053036;28;20461;-66
2022/05/07 00:53:27;;;;;;;11.93;10.32;;;13.10;79.90;;;;;;5053447;28;20043;-67
2022/05/07 00:55:53;;;;;;;12.90;10.60;;;13.10;79.70;;;;;;5052638;28;20032;-67
2022/05/07 00:58:19;;;;;;;11.73;10.48;;;13.00;79.60;;;;;;5054379;28;20506;-67
2022/05/07 01:00:45;;;;;;;11.55;10.10;;;13.00;79.60;;;;;;5056614;28;20331;-67
2022/05/07 01:03:11;;;;;;;13.13;10.35;;;13.00;79.60;;;;;;5052626;28;20113;-67
2022/05/07 01:05:38;;;;;;;12.90;10.68;;;12.90;79.80;;;;;;5053408;28;20047;-66
2022/05/07 01:08:05;;;;;;;13.63;10.50;;;12.80;80.50;;;;;;5052271;28;20497;-66
2022/05/07 01:10:31;;;;;;;12.65;10.30;;;12.80;80.00;;;;;;5054688;28;20041;-67
2022/05/07 01:12:57;;;;;;;12.50;9.75;;;12.80;80.10;;;;;;5055291;28;20108;-67
2022/05/07 01:15:25;;;;;;;12.38;10.23;;;12.70;80.30;;;;;;5054307;28;20177;-67
2022/05/07 01:17:50;;;;;;;15.20;10.80;;;12.70;80.70;;;;;;5052911;28;20025;-67
2022/05/07 01:20:17;;;;;;;11.13;9.82;;;12.70;80.60;;;;;;5055876;28;20058;-67
2022/05/07 01:22:45;;;;;;;14.35;10.73;;;12.60;80.80;;;;;;5053540;28;20064;-67
2022/05/07 01:25:11;;;;;;;14.00;10.95;;;12.60;80.90;;;;;;5051596;28;20029;-65
2022/05/07 01:27:36;;;;;;;14.25;10.32;;;12.60;81.10;;;;;;5052647;28;20037;-67
2022/05/07 01:30:03;;;;;;;13.45;10.77;;;12.50;81.20;;;;;;5056630;28;20559;-66
2022/05/07 01:32:29;;;;;;;14.13;10.95;;;12.50;81.30;;;;;;5056233;28;20581;-67
2022/05/07 01:34:54;;;;;;;14.98;11.95;;;12.50;81.50;;;;;;5053570;28;20032;-67
2022/05/07 01:37:20;;;;;;;15.85;11.13;;;12.50;81.50;;;;;;5054842;28;20032;-67
2022/05/07 01:39:46;;;;;;;15.13;10.82;;;12.50;81.30;;;;;;5052820;28;20560;-67
2022/05/07 01:42:11;;;;;;;13.88;11.27;;;12.40;81.30;;;;;;5053056;28;20519;-66
2022/05/07 01:44:37;;;;;;;14.18;10.98;;;12.50;81.40;;;;;;5054501;28;20029;-67
2022/05/07 01:49:47;;;;;;;12.60;10.82;;;12.50;81.40;;;;;;5059787;28;20067;-67
2022/05/07 01:52:14;;;;;;;12.68;10.88;;;12.50;81.10;;;;;;5057231;28;20040;-67
2022/05/07 01:54:39;;;;;;;12.90;10.07;;;12.50;80.90;;;;;;5052763;28;22114;-67
2022/05/07 01:57:05;;;;;;;14.10;10.25;;;12.50;80.80;;;;;;5055090;28;20120;-66
2022/05/07 01:59:31;;;;;;;11.18;9.98;;;12.50;80.80;;;;;;5057341;28;20025;-67
2022/05/07 02:01:56;;;;;;;12.18;10.15;;;12.50;81.00;;;;;;5056402;28;20044;-67
2022/05/07 02:04:22;;;;;;;11.75;10.32;;;12.50;81.10;;;;;;5057353;28;20098;-66
2022/05/07 02:06:48;;;;;;;12.35;10.43;;;12.50;81.10;;;;;;5054765;28;20122;-66
2022/05/07 02:09:14;;;;;;;13.98;10.52;;;12.50;81.00;;;;;;5055763;28;20041;-67
2022/05/07 02:11:40;;;;;;;11.27;9.43;;;12.50;80.90;;;;;;5056832;28;20029;-67
2022/05/07 02:14:05;;;;;;;12.27;9.82;;;12.50;80.80;;;;;;5056316;28;20487;-66
2022/05/07 02:16:31;;;;;;;11.52;9.82;;;12.50;80.50;;;;;;5057673;28;20055;-66
2022/05/07 02:18:57;;;;;;;12.30;10.65;;;12.50;80.30;;;;;;5057210;28;20585;-66
2022/05/07 02:21:22;;;;;;;12.90;10.77;;;12.40;80.30;;;;;;5057942;28;20033;-67
2022/05/07 02:23:48;;;;;;;16.73;10.68;;;12.40;80.40;;;;;;5058383;28;20037;-67
2022/05/07 02:26:14;;;;;;;12.13;10.52;;;12.40;80.60;;;;;;5054459;28;20020;-67
2022/05/07 02:28:39;;;;;;;11.73;9.88;;;12.30;80.60;;;;;;5056200;28;20493;-66
2022/05/07 02:31:05;;;;;;;11.20;9.55;;;12.30;80.60;;;;;;5057873;28;20545;-66
2022/05/07 02:33:31;;;;;;;11.60;10.00;;;12.30;80.50;;;;;;5057617;28;20036;-66
2022/05/07 02:35:56;;;;;;;13.27;10.23;;;12.30;80.60;;;;;;5053681;28;20025;-68
2022/05/07 02:38:22;;;;;;;10.77;9.68;;;12.20;80.50;;;;;;5055702;28;20033;-67
2022/05/07 02:43:31;;;;;;;11.27;9.05;;;12.10;80.60;;;;;;5056475;28;20067;-67
2022/05/07 02:45:57;;;;;;;12.35;10.23;;;12.10;80.60;;;;;;5054701;28;20141;-66
2022/05/07 02:48:25;;;;;;;12.13;10.00;;;12.10;80.80;;;;;;5057755;28;20040;-66
2022/05/07 02:50:50;;;;;;;10.15;9.02;;;12.00;81.00;;;;;;5025419;28;20043;-66
2022/05/07 02:53:16;;;;;;;12.30;9.85;;;12.00;81.00;;;;;;5054624;28;20463;-67
2022/05/07 02:55:42;;;;;;;11.20;9.57;;;11.90;81.00;;;;;;5057141;28;20544;-66
2022/05/07 02:58:08;;;;;;;11.77;10.32;;;11.90;81.10;;;;;;5058247;28;20098;-67
2022/05/07 03:00:34;;;;;;;10.50;9.15;;;11.90;81.30;;;;;;5058351;28;20121;-67
2022/05/07 03:03:00;;;;;;;14.82;10.38;;;11.90;81.50;;;;;;5057989;28;20083;-68
2022/05/07 03:05:25;;;;;;;13.50;10.52;;;11.80;81.40;;;;;;5053852;28;20032;-67
2022/05/07 03:07:53;;;;;;;12.23;9.75;;;11.90;81.40;;;;;;5058103;28;20182;-67
2022/05/07 03:10:18;;;;;;;10.77;9.43;;;11.90;81.20;;;;;;5056425;28;20036;-67
2022/05/07 03:12:44;;;;;;;12.05;10.02;;;11.90;81.10;;;;;;5054762;28;20039;-66
2022/05/07 03:15:10;;;;;;;13.38;11.48;;;11.90;81.00;;;;;;5058161;28;20032;-66
2022/05/07 03:17:36;;;;;;;13.30;10.63;;;11.80;80.90;;;;;;5058030;28;20519;-68
2022/05/07 03:20:06;;;;;;;14.15;11.20;;;11.70;80.80;;;;;;5058603;28;20061;-66
2022/05/07 03:22:31;;;;;;;15.95;10.95;;;11.70;81.00;;;;;;5057394;28;20029;-66
2022/05/07 03:24:57;;;;;;;11.43;10.25;;;11.60;81.20;;;;;;5057915;28;20039;-67
2022/05/07 03:27:22;;;;;;;14.30;9.85;;;11.60;81.50;;;;;;5062471;28;20571;-67
2022/05/07 03:29:48;;;;;;;12.00;9.60;;;11.60;81.80;;;;;;5058034;28;20059;-67
2022/05/07 03:32:14;;;;;;;12.75;10.52;;;11.60;82.00;;;;;;5054509;28;20536;-67
2022/05/07 03:34:39;;;;;;;12.20;10.20;;;11.60;82.20;;;;;;5060256;28;20033;-66
2022/05/07 03:37:05;;;;;;;11.55;10.23;;;11.60;82.20;;;;;;5055951;28;20040;-67
2022/05/07 03:39:31;;;;;;;15.05;10.48;;;11.60;82.20;;;;;;5056145;28;20029;-67
2022/05/07 03:41:56;;;;;;;13.00;10.27;;;11.60;82.20;;;;;;5054388;28;20029;-65
2022/05/07 03:44:22;;;;;;;11.55;10.35;;;11.70;82.20;;;;;;5054847;28;20089;-67
2022/05/07 03:46:48;;;;;;;12.60;10.00;;;11.70;82.20;;;;;;5056459;28;20077;-66
2022/05/07 03:49:14;;;;;;;13.00;11.30;;;11.70;82.20;;;;;;5053920;28;20076;-67
2022/05/07 03:54:23;;;;;;;11.77;10.57;;;11.70;82.00;;;;;;5055108;28;20040;-67
2022/05/07 03:56:49;;;;;;;12.27;9.82;;;11.80;81.90;;;;;;5054640;28;20028;-67
2022/05/07 03:59:15;;;;;;;14.52;10.15;;;11.70;81.90;;;;;;5056543;28;20028;-65
2022/05/07 04:01:40;;;;;;;10.75;9.57;;;11.70;81.90;;;;;;5057662;28;20362;-66
2022/05/07 04:04:06;;;;;;;12.75;9.75;;;11.70;82.10;;;;;;5056882;28;20120;-66
2022/05/07 04:06:31;;;;;;;11.05;9.65;;;11.70;82.30;;;;;;5053782;28;20230;-67
2022/05/07 04:08:58;;;;;;;12.77;10.30;;;11.80;82.50;;;;;;5052384;28;20414;-67
2022/05/07 04:11:23;;;;;;;11.75;10.30;;;11.70;82.40;;;;;;5055009;28;20044;-66
2022/05/07 04:13:49;;;;;;;13.00;10.23;;;11.80;82.40;;;;;;5053284;28;20356;-67
2022/05/07 04:16:14;;;;;;;12.43;9.88;;;11.80;82.40;;;;;;5056690;28;20565;-67
2022/05/07 04:18:40;;;;;;;10.77;9.65;;;11.90;82.40;;;;;;5052946;28;20584;-67
2022/05/07 04:21:06;;;;;;;10.82;9.13;;;11.90;82.40;;;;;;5055202;28;20144;-65
2022/05/07 04:23:32;;;;;;;11.50;9.48;;;12.00;82.00;;;;;;5053078;28;20032;-66
2022/05/07 04:25:58;;;;;;;11.75;9.88;;;12.00;81.80;;;;;;5053979;28;20402;-66
2022/05/07 04:28:24;;;;;;;11.32;9.95;;;12.00;81.70;;;;;;5051876;28;20039;-67
2022/05/07 04:30:49;;;;;;;14.32;10.68;;;12.10;81.80;;;;;;5056749;28;20402;-66
2022/05/07 04:33:16;;;;;;;21.50;13.95;;;12.10;81.90;;;;;;5052443;28;20032;-66
2022/05/07 04:35:41;;;;;;;20.88;14.45;;;12.10;81.90;;;;;;5054839;28;20021;-67
2022/05/07 04:38:07;;;;;;;14.30;11.25;;;12.10;81.90;;;;;;5053749;28;20044;-66
2022/05/07 04:40:33;;;;;;;14.02;11.00;;;12.20;81.80;;;;;;5052370;28;20127;-67
2022/05/07 04:42:58;;;;;;;13.68;11.02;;;12.20;81.70;;;;;;5055343;28;20041;-67
2022/05/07 04:45:25;;;;;;;12.68;9.25;;;12.20;81.80;;;;;;5053236;28;20043;-66
2022/05/07 04:47:51;;;;;;;10.35;8.70;;;12.30;81.60;;;;;;5054958;28;20033;-67
2022/05/07 04:50:17;;;;;;;9.38;8.40;;;12.30;81.30;;;;;;5051243;28;20032;-67
2022/05/07 04:52:43;;;;;;;11.55;9.13;;;12.30;81.00;;;;;;5053915;28;21156;-66
2022/05/07 04:55:09;;;;;;;10.10;9.02;;;12.30;81.10;;;;;;5053303;28;20033;-68
2022/05/07 04:57:34;;;;;;;10.82;8.88;;;12.30;81.00;;;;;;5054395;28;20032;-67
2022/05/07 05:00:00;;;;;;;10.70;8.73;;;12.30;81.90;;;;;;5057140;28;20123;-67
2022/05/07 05:02:26;;;;;;;9.80;8.82;;;12.30;81.00;;;;;;5057676;28;20032;-66
2022/05/07 05:04:52;;;;;;;9.27;8.35;;;12.30;81.20;;;;;;5053860;28;20028;-67
2022/05/07 05:07:17;;;;;;;10.18;8.30;;;12.30;81.60;;;;;;5054702;28;20032;-66
2022/05/07 05:09:43;;;;;;;10.90;8.77;;;12.30;81.20;;;;;;5051070;28;20025;-67
2022/05/07 05:12:09;;;;;;;11.07;9.40;;;12.20;81.20;;;;;;5054499;28;20045;-66
2022/05/07 05:17:19;;;;;;;17.27;12.70;;;12.30;81.30;;;;;;5055521;28;20040;-67
2022/05/07 05:19:45;;;;;;;13.93;10.63;;;12.40;81.30;;;;;;5058962;28;20029;-66
2022/05/07 05:22:10;;;;;;;11.18;8.70;;;12.30;81.20;;;;;;5060661;28;20040;-67
2022/05/07 05:24:36;;;;;;;9.88;8.13;;;12.40;81.40;;;;;;5057156;28;20096;-66
2022/05/07 05:27:01;;;;;;;9.33;8.37;;;12.40;81.50;;;;;;5060156;28;20048;-67
2022/05/07 05:29:27;;;;;;;9.93;8.38;;;12.40;81.60;;;;;;5055263;28;20465;-67
2022/05/07 05:31:53;;;;;;;9.65;7.95;;;12.50;81.50;;;;;;5059155;28;20557;-67
2022/05/07 05:34:18;;;;;;;10.23;8.23;;;12.50;81.00;;;;;;5058991;28;20028;-66
2022/05/07 05:36:44;;;;;;;8.77;7.88;;;12.50;81.00;;;;;;5058359;28;20029;-66
2022/05/07 05:39:09;;;;;;;10.38;7.93;;;12.60;81.00;;;;;;5056597;28;20562;-67
2022/05/07 05:41:35;;;;;;;8.85;7.90;;;12.70;81.00;;;;;;5055891;28;20421;-67
2022/05/07 05:44:02;;;;;;;10.73;8.10;;;12.70;80.80;;;;;;5045617;28;20029;-66
2022/05/07 05:46:28;;;;;;;8.35;7.55;;;12.80;80.80;;;;;;5042995;28;20497;-67
2022/05/07 05:48:53;;;;;;;9.15;7.68;;;12.90;80.50;;;;;;5045316;28;20049;-67
2022/05/07 05:51:19;;;;;;;9.77;7.43;;;12.90;80.00;;;;;;5051791;28;20216;-65
2022/05/07 05:53:45;;;;;;;10.45;7.75;;;12.90;80.10;;;;;;5051681;28;20075;-67
2022/05/07 05:56:10;;;;;;;9.13;8.20;;;13.00;80.10;;;;;;5053979;28;20120;-67
2022/05/07 05:58:36;;;;;;;8.85;7.47;;;13.00;80.10;;;;;;5051822;28;20033;-65
2022/05/07 06:01:06;;;;;;;10.43;7.85;;;13.10;80.80;;;;;;5052942;28;20120;-67
2022/05/07 06:03:33;;;;;;;9.27;8.38;;;13.10;79.90;;;;;;5048698;28;20033;-66
2022/05/07 06:05:59;;;;;;;10.63;8.30;;;13.20;80.10;;;;;;5053534;28;20039;-67
2022/05/07 06:08:25;;;;;;;10.57;8.45;;;13.20;79.80;;;;;;5053293;28;20049;-66
2022/05/07 06:10:52;;;;;;;9.70;8.70;;;13.30;79.40;;;;;;5050114;28;20047;-67
2022/05/07 06:13:19;;;;;;;10.68;8.75;;;13.30;78.90;;;;;;5053400;28;20040;-66
2022/05/07 06:15:45;;;;;;;10.43;8.70;;;13.30;79.70;;;;;;5050007;28;20067;-67
2022/05/07 06:18:11;;;;;;;10.60;8.45;;;13.40;78.90;;;;;;5050199;28;20120;-65
2022/05/07 06:20:37;;;;;;;9.65;8.45;;;13.40;78.80;;;;;;5046482;28;20155;-66
2022/05/07 06:23:02;;;;;;;10.10;8.73;;;13.40;78.90;;;;;;5049536;28;20029;-67
2022/05/07 06:28:13;;;;;;;12.33;8.93;;;13.50;79.10;;;;;;5052389;28;20159;-67
2022/05/07 06:30:39;;;;;;;10.60;8.80;;;13.50;78.90;;;;;;5050644;28;20275;-66
2022/05/07 06:33:04;;;;;;;10.93;9.20;;;13.60;79.00;;;;;;5049826;28;20044;-66
2022/05/07 06:35:31;;;;;;;13.15;9.93;;;13.60;79.20;;;;;;5049314;28;20351;-67
2022/05/07 06:37:56;;;;;;;12.88;10.10;;;13.70;78.90;;;;;;5050938;28;20677;-67
2022/05/07 06:40:22;;;;;;;12.05;10.68;;;13.80;78.40;;;;;;5050803;28;20072;-66
2022/05/07 06:42:48;;;;;;;11.90;9.68;;;13.80;78.00;;;;;;5048928;28;20041;-66
2022/05/07 06:45:14;;;;;;;11.27;9.75;;;13.80;78.20;;;;;;5047383;28;20040;-66
2022/05/07 06:47:39;;;;;;;11.50;10.30;;;13.90;78.30;;;;;;5050202;28;20083;-67
2022/05/07 06:50:05;;;;;;;14.55;10.27;;;13.90;78.40;;;;;;5045690;28;20529;-64
2022/05/07 06:52:31;;;;;;;12.50;10.82;;;14.00;78.50;;;;;;5054806;28;20274;-66
2022/05/07 06:54:57;;;;;;;12.77;10.60;;;14.10;78.20;;;;;;5052460;28;20032;-67
2022/05/07 06:57:25;;;;;;;12.85;10.77;;;14.10;77.90;;;;;;5054501;28;20039;-67
2022/05/07 06:59:51;;;;;;;12.48;10.88;;;14.20;78.00;;;;;;5048440;28;20099;-67
2022/05/07 07:02:17;;;;;;;15.88;10.98;;;14.20;78.20;;;;;;5050333;28;20037;-66
2022/05/07 07:04:42;;;;;;;17.60;11.13;;;14.20;78.00;;;;;;5055996;28;20044;-66
2022/05/07 07:07:08;;;;;;;16.33;12.23;;;14.30;78.10;;;;;;5055711;28;20484;-67
2022/05/07 07:09:34;;;;;;;15.93;11.77;;;14.30;77.70;;;;;;5058511;28;20093;-67
2022/05/07 07:12:00;;;;;;;12.98;11.63;;;14.40;77.60;;;;;;5057055;28;20501;-67
2022/05/07 07:14:26;;;;;;;13.50;11.85;;;14.40;77.40;;;;;;5058157;28;20043;-68
2022/05/07 07:16:51;;;;;;;15.05;12.68;;;14.50;77.50;;;;;;5057331;28;20404;-68
2022/05/07 07:19:17;;;;;;;14.65;12.13;;;14.50;77.30;;;;;;5058146;28;20039;-67
2022/05/07 07:21:43;;;;;;;14.57;12.30;;;14.50;77.40;;;;;;5059461;28;20036;-67
2022/05/07 07:24:09;;;;;;;17.35;12.10;;;14.60;77.40;;;;;;5056555;28;20035;-68
2022/05/07 07:26:35;;;;;;;14.80;12.23;;;14.70;77.30;;;;;;5058408;28;20029;-67
2022/05/07 07:29:00;;;;;;;14.38;12.93;;;14.70;77.20;;;;;;5058230;28;20033;-67
2022/05/07 07:31:26;;;;;;;14.52;12.43;;;14.70;77.10;;;;;;5057210;28;20521;-67
2022/05/07 07:33:51;;;;;;;14.50;12.02;;;14.80;77.00;;;;;;5060367;28;20060;-67
2022/05/07 07:36:17;;;;;;;14.15;12.75;;;14.80;76.80;;;;;;5058941;28;20041;-67
2022/05/07 07:38:43;;;;;;;16.77;12.90;;;14.90;77.10;;;;;;5057782;28;20029;-67
2022/05/07 07:41:08;;;;;;;15.55;13.13;;;14.90;77.20;;;;;;5057670;28;20063;-67
2022/05/07 07:43:35;;;;;;;16.58;13.40;;;15.00;76.80;;;;;;5058689;28;20041;-66
2022/05/07 07:48:46;;;;;;;16.92;13.18;;;15.10;76.10;;;;;;5059063;28;20052;-67
2022/05/07 07:51:12;;;;;;;15.77;13.75;;;15.10;76.30;;;;;;5059175;28;20032;-67
2022/05/07 07:53:39;;;;;;;16.27;13.07;;;15.10;76.20;;;;;;5057927;28;20163;-67
2022/05/07 07:56:05;;;;;;;17.00;13.55;;;15.20;76.50;;;;;;5058532;28;20127;-68
2022/05/07 07:58:30;;;;;;;17.58;14.68;;;15.30;76.50;;;;;;5057947;28;20039;-67
2022/05/07 08:00:56;;;;;;;20.30;13.93;;;15.30;76.10;;;;;;5057772;28;20021;-66
2022/05/07 08:03:22;;;;;;;14.45;12.95;;;15.40;76.30;;;;;;5057267;28;20052;-67
2022/05/07 08:05:51;;;;;;;16.35;13.07;;;15.40;76.40;;;;;;5056490;28;20320;-67
2022/05/07 08:13:47;;;;;;;15.77;13.60;;;15.60;76.00;;;;;;5055403;28;20079;-67
2022/05/07 08:16:15;;;;;;;16.70;14.02;;;15.70;76.10;;;;;;5055781;28;20093;-67
2022/05/07 08:18:41;;;;;;;19.45;15.38;;;15.70;76.10;;;;;;5058713;28;20039;-67
2022/05/07 08:21:08;;;;;;;15.73;14.05;;;15.80;76.10;;;;;;5073453;28;20456;-67
2022/05/07 08:23:35;;;;;;;16.27;14.57;;;15.80;76.10;;;;;;5057644;28;20082;-67
2022/05/07 08:26:04;;;;;;;16.88;15.07;;;15.90;76.10;;;;;;5057658;28;20036;-68
2022/05/07 08:28:30;;;;;;;16.38;14.20;;;16.00;76.20;;;;;;5057859;28;20036;-68
2022/05/07 08:30:56;;;;;;;16.58;14.60;;;16.10;76.20;;;;;;5055445;28;20049;-68
2022/05/07 08:33:21;;;;;;;17.27;14.75;;;16.20;76.00;;;;;;5058328;28;20129;-66
2022/05/07 08:35:47;;;;;;;16.63;14.85;;;16.30;75.60;;;;;;5055663;28;20029;-67
2022/05/07 08:38:13;;;;;;;19.23;16.23;;;16.40;74.90;;;;;;5056645;28;20694;-67
2022/05/07 08:40:42;;;;;;;20.33;15.48;;;16.50;73.70;;;;;;5053917;28;20040;-67
2022/05/07 08:43:08;;;;;;;17.50;14.13;;;16.60;73.90;;;;;;5056321;28;20537;-68
2022/05/07 08:45:39;;;;;;;20.30;15.70;;;16.60;73.90;;;;;;5055284;28;20111;-67
2022/05/07 08:48:05;;;;;;;17.00;15.30;;;16.70;73.00;;;;;;5058435;28;20437;-67
2022/05/07 08:50:31;;;;;;;18.77;15.68;;;16.80;72.80;;;;;;5055673;28;20060;-66
2022/05/07 08:52:57;;;;;;;17.10;15.20;;;16.90;73.00;;;;;;5054369;28;20484;-67
2022/05/07 08:55:23;;;;;;;16.77;14.95;;;16.90;72.80;;;;;;5062546;28;20037;-66
2022/05/07 08:57:52;;;;;;;19.15;15.52;;;17.00;72.80;;;;;;5064516;28;20041;-67
2022/05/07 09:00:23;;;;;;;16.10;14.30;;;17.10;72.60;;;;;;5064512;28;20524;-67
2022/05/07 09:02:56;;;;;;;17.45;15.40;;;17.30;72.30;;;;;;5046553;28;20032;-67
2022/05/07 09:05:39;;;;;;;16.95;15.10;;;17.40;71.90;;;;;;5064371;28;20056;-67
2022/05/07 09:08:06;;;;;;;19.80;15.65;;;17.50;71.00;;;;;;5063916;28;20043;-67
2022/05/07 09:10:34;;;;;;;16.65;14.77;;;17.60;71.30;;;;;;5062453;28;20030;-67
2022/05/07 09:13:09;;;;;;;16.25;14.55;;;17.70;71.30;;;;;;5064869;28;20033;-66
2022/05/07 09:15:35;;;;;;;16.45;14.40;;;17.80;69.70;;;;;;5063132;28;20493;-68
2022/05/07 09:18:11;;;;;;;16.17;14.02;;;17.90;70.90;;;;;;5065428;28;20386;-68
2022/05/07 09:20:36;;;;;;;21.27;14.50;;;18.00;70.90;;;;;;5064427;28;20043;-67
2022/05/07 09:23:02;;;;;;;18.98;15.57;;;18.10;70.10;;;;;;5063976;28;20044;-67
2022/05/07 09:25:30;;;;;;;17.55;14.57;;;18.10;67.70;;;;;;5062913;28;20513;-67
2022/05/07 09:27:56;;;;;;;16.45;13.68;;;18.30;68.20;;;;;;5062285;28;20041;-68
2022/05/07 09:30:24;;;;;;;15.20;13.60;;;18.30;68.90;;;;;;5065157;28;20528;-67
2022/05/07 09:32:52;;;;;;;14.60;13.10;;;18.40;68.20;;;;;;5065914;28;20041;-68
2022/05/07 09:38:04;;;;;;;15.07;12.65;;;18.60;67.10;;;;;;5064162;28;20397;-68
2022/05/07 09:40:31;;;;;;;14.07;11.55;;;18.70;66.20;;;;;;5061358;28;20037;-67
2022/05/07 09:42:57;;;;;;;14.27;11.07;;;18.80;65.30;;;;;;5062249;28;20112;-68
2022/05/07 09:45:27;;;;;;;12.52;11.23;;;18.80;66.00;;;;;;5062514;28;20210;-67
2022/05/07 09:48:00;;;;;;;12.88;11.32;;;18.80;65.70;;;;;;5064223;28;20033;-67
2022/05/07 09:50:44;;;;;;;12.55;11.15;;;18.90;64.60;;;;;;5076294;28;20492;-67
2022/05/07 09:58:42;;;;;;;13.15;10.25;;;19.00;65.10;;;;;;5063083;28;20087;-67
2022/05/07 10:01:39;;;;;;;12.85;10.85;;;19.10;65.60;;;;;;5063849;28;20120;-67
2022/05/07 10:04:46;;;;;;;9.82;8.82;;;19.10;63.30;;;;;;5062315;28;20067;-68
2022/05/07 10:07:24;;;;;;;10.18;8.85;;;19.10;61.80;;;;;;5057444;28;20045;-68
2022/05/07 10:10:11;;;;;;;9.80;8.70;;;19.20;62.20;;;;;;5059158;28;20035;-67
2022/05/07 10:12:38;;;;;;;9.00;8.10;;;19.10;62.30;;;;;;5071744;28;20033;-67
2022/05/07 10:15:08;;;;;;;10.18;8.57;;;19.20;63.80;;;;;;5056780;28;20041;-68
2022/05/07 10:17:35;;;;;;;7.97;7.20;;;19.20;63.50;;;;;;5060388;28;20063;-68
2022/05/07 10:20:09;;;;;;;9.88;7.43;;;19.30;64.00;;;;;;5060578;28;20032;-67
2022/05/07 10:22:36;;;;;;;9.50;8.43;;;19.40;62.50;;;;;;5061837;28;20376;-68
2022/05/07 10:25:06;;;;;;;9.55;7.80;;;19.40;62.50;;;;;;5059487;28;20045;-67
2022/05/07 10:27:34;;;;;;;9.63;7.68;;;19.50;62.70;;;;;;5059092;28;20117;-68
2022/05/07 10:30:07;;;;;;;9.43;7.93;;;19.60;62.30;;;;;;5057389;28;20514;-65
2022/05/07 10:32:48;;;;;;;8.57;7.45;;;19.70;61.70;;;;;;5057040;28;20413;-67
2022/05/07 10:35:17;;;;;;;8.98;7.78;;;19.80;60.00;;;;;;5058332;28;20040;-68
2022/05/07 10:37:43;;;;;;;9.85;8.32;;;19.90;60.60;;;;;;5057516;28;20572;-69
2022/05/07 10:40:12;;;;;;;9.73;8.48;;;19.90;60.50;;;;;;5060458;28;20115;-68
2022/05/07 10:42:39;;;;;;;10.75;7.90;;;19.90;59.40;;;;;;5059278;28;20119;-67
2022/05/07 10:45:20;;;;;;;9.35;7.47;;;19.90;60.30;;;;;;5061944;28;20465;-68
2022/05/07 10:47:56;;;;;;;9.30;7.50;;;20.00;59.40;;;;;;5063298;28;20416;-68
2022/05/07 10:50:23;;;;;;;10.18;7.97;;;20.00;59.60;;;;;;5058063;28;20036;-68
2022/05/07 10:52:56;;;;;;;12.18;7.90;;;20.10;60.10;;;;;;5058482;28;20029;-68
2022/05/07 10:55:26;;;;;;;8.23;7.28;;;20.10;59.10;;;;;;5057332;28;20327;-68
2022/05/07 10:57:52;;;;;;;8.55;7.70;;;20.10;59.50;;;;;;5059920;28;20453;-68
2022/05/07 11:00:20;;;;;;;8.25;7.45;;;20.20;58.70;;;;;;5056484;28;20039;-66
2022/05/07 11:02:51;;;;;;;8.57;7.57;;;20.20;58.70;;;;;;5055857;28;20045;-68
2022/05/07 11:05:27;;;;;;;9.77;7.45;;;20.30;57.80;;;;;;5058762;28;20048;-68
2022/05/07 11:08:02;;;;;;;7.75;7.05;;;20.30;58.30;;;;;;5063507;28;20036;-65
2022/05/07 11:10:28;;;;;;;7.45;6.60;;;20.30;57.90;;;;;;5056947;28;20032;-66
2022/05/07 11:13:06;;;;;;;8.45;7.38;;;20.40;58.70;;;;;;5058758;28;20033;-67
2022/05/07 11:15:32;;;;;;;7.47;6.65;;;20.50;58.00;;;;;;5057462;28;20056;-67
2022/05/07 11:17:57;;;;;;;7.78;7.00;;;20.50;58.60;;;;;;5059532;28;20063;-68
2022/05/07 11:20:31;;;;;;;7.97;7.18;;;20.60;56.80;;;;;;5057250;28;20029;-68
2022/05/07 11:23:00;;;;;;;9.47;6.70;;;20.60;55.80;;;;;;5059123;28;20085;-67
2022/05/07 11:25:27;;;;;;;8.32;6.95;;;20.60;57.20;;;;;;5058644;28;20283;-67
2022/05/07 11:27:54;;;;;;;7.60;6.45;;;20.60;57.70;;;;;;5059231;28;20028;-67
2022/05/07 11:30:19;;;;;;;8.27;7.13;;;20.70;57.90;;;;;;5058089;28;20028;-67
2022/05/07 11:32:45;;;;;;;7.85;7.03;;;20.70;57.60;;;;;;5058497;28;20028;-67
2022/05/07 11:35:11;;;;;;;9.45;6.50;;;20.70;57.40;;;;;;5057755;28;20027;-67
2022/05/07 11:37:44;;;;;;;7.85;6.55;;;20.70;57.30;;;;;;5054989;28;20405;-67
2022/05/07 11:40:25;;;;;;;7.65;6.55;;;20.70;55.40;;;;;;5057222;28;20129;-67
2022/05/07 11:45:25;;;;;;;7.07;6.38;;;20.80;56.90;;;;;;5055906;28;20040;-67
2022/05/07 11:45:37;;;;;;;7.93;6.70;;;20.70;55.20;;;;;;5057574;28;20124;-67
2022/05/07 11:48:14;;;;;;;7.47;6.75;;;20.80;56.00;;;;;;5057155;28;20135;-66
2022/05/07 11:51:00;;;;;;;7.82;6.75;;;20.70;55.60;;;;;;5057127;28;20031;-67
2022/05/07 11:53:31;;;;;;;6.72;6.13;;;20.70;55.40;;;;;;5058320;28;20029;-68
2022/05/07 11:56:06;;;;;;;6.93;6.30;;;20.70;56.10;;;;;;5058193;28;20506;-67
2022/05/07 11:58:44;;;;;;;6.43;5.45;;;20.70;56.00;;;;;;5057747;28;20178;-66
2022/05/07 12:01:18;;;;;;;8.20;5.80;;;20.70;56.40;;;;;;5058153;28;20033;-67
2022/05/07 12:03:44;;;;;;;8.45;6.82;;;20.80;55.80;;;;;;5058200;28;20043;-67
2022/05/07 12:06:12;;;;;;;8.35;6.32;;;20.80;56.00;;;;;;5058016;28;20028;-67
2022/05/07 12:08:37;;;;;;;6.93;6.25;;;20.80;56.10;;;;;;5058271;28;20099;-67
2022/05/07 12:11:04;;;;;;;6.57;5.85;;;20.80;55.80;;;;;;5056428;28;20464;-68
2022/05/07 12:13:30;;;;;;;6.50;5.75;;;20.80;56.40;;;;;;5058826;28;20409;-67
2022/05/07 12:18:47;;;;;;;7.10;5.63;;;20.80;56.20;;;;;;5056932;28;20063;-67
2022/05/07 12:21:12;;;;;;;6.40;5.75;;;20.80;56.40;;;;;;5056011;28;20041;-67
2022/05/07 12:31:53;;;;;;;6.00;5.28;;;20.80;56.30;;;;;;5056606;28;20429;-67
2022/05/07 12:34:19;;;;;;;6.85;5.80;;;20.80;56.30;;;;;;5055746;28;20052;-67
2022/05/07 12:36:45;;;;;;;6.13;5.53;;;20.90;56.00;;;;;;5053814;28;20028;-67
2022/05/07 12:39:11;;;;;;;6.22;5.63;;;21.00;55.80;;;;;;5055353;28;20043;-67
2022/05/07 12:41:41;;;;;;;6.47;5.88;;;21.00;55.70;;;;;;5056324;28;20116;-68
2022/05/07 12:44:06;;;;;;;7.18;5.72;;;21.10;54.10;;;;;;5049964;28;20051;-68
2022/05/07 12:46:33;;;;;;;7.72;5.47;;;21.10;51.60;;;;;;5056386;28;20405;-68
2022/05/07 12:48:58;;;;;;;6.57;5.40;;;21.10;52.40;;;;;;5060604;28;20445;-68
2022/05/07 12:51:25;;;;;;;6.50;4.85;;;21.10;53.80;;;;;;5056847;28;20037;-68
2022/05/07 12:53:54;;;;;;;5.15;4.65;;;21.00;54.40;;;;;;5058534;28;20032;-67
2022/05/07 12:56:22;;;;;;;4.40;4.10;;;21.10;54.10;;;;;;5058682;28;20501;-67
2022/05/07 12:58:49;;;;;;;5.57;5.00;;;21.10;54.00;;;;;;5056278;28;20163;-67
2022/05/07 13:01:15;;;;;;;5.40;4.90;;;21.20;54.00;;;;;;5057865;28;20033;-67
2022/05/07 13:03:40;;;;;;;7.88;5.43;;;21.20;54.20;;;;;;5057434;28;20037;-67
2022/05/07 13:06:06;;;;;;;7.70;4.85;;;21.30;54.30;;;;;;5057006;28;20510;-68
2022/05/07 13:08:32;;;;;;;5.82;5.22;;;21.30;54.60;;;;;;5058065;28;20036;-67
2022/05/07 13:10:58;;;;;;;5.07;4.43;;;21.40;54.30;;;;;;5053420;28;20691;-67
2022/05/07 13:13:24;;;;;;;4.90;4.50;;;21.40;53.80;;;;;;5058003;28;20046;-67
2022/05/07 13:15:51;;;;;;;5.03;4.53;;;21.40;53.70;;;;;;5056659;28;20029;-67
2022/05/07 13:18:17;;;;;;;4.80;4.30;;;21.50;53.40;;;;;;5058263;28;20037;-67
2022/05/07 13:20:43;;;;;;;4.80;4.38;;;21.50;53.40;;;;;;5055379;28;20037;-67
2022/05/07 13:23:09;;;;;;;4.70;4.30;;;21.50;51.80;;;;;;5057572;28;20041;-67